Portada
METAR-TAF:

METAR-TAF

Aeroports :

Cahokia-Saint Louis, Illinois, Estats Units d'Amèrica

latitud: 38-34-15N, longitud: 090-09-22W, altitud: 126 m

Observació

L'informe es va fer fa 19 minuts, a les 12:53 UTC
Vent 3 kt del Nord/Nord-Oest
Temperatura 17°C
Humitat 72%
Pressió 1023 hPa
Visibilitat: 16.1 km
Cel clar

METAR: KCPS 301253Z 34003KT 10SM CLR 17/12 A3022 RMK AO2 SLP233 T01720122

Hora: 08:12 (13:12 UTC)

Pronòstic

L'informe es va fer fa 1 hora i 52 minuts, a les 11:20 UTC
Pronòstic vàlid del 30 a les 12 UTC al 31 a les 12 UTC
Vent 3 kt amb direcció variable
Visibilitat: 10 km
Cel clar
A partir de les 30 a les 1500 UTC
Vent 5 kt del Nord
Visibilitat: 10 km
Escasses núvols a una alçada de 3500 ft
Núvols disperses a una alçada de 25000 ft
A partir de les 31 a les 0200 UTC
Vent 5 kt amb direcció variable
Visibilitat: 10 km
Núvols disperses a una alçada de 15000 ft

TAF: KCPS 301120Z 3012/3112 VRB03KT P6SM SKC FM301500 35005KT P6SM FEW035 SCT250 FM310200 VRB05KT P6SM SCT150

Observacions i pronòstics meteorològics de més de 4000 aeroports (METAR i TAF).

Les estacions disponibles són els punts grocs i vermells al mapa.

Posi el ratolí al punt desitjat per veure el nom de l'estació.

Feu clic per veure les observacions i els pronòstics meteorològics.

Per canviar el mapa: feu clic els botons verds amb una creu de color negre per apropar; al botó verd amb un guió per allunyar la imatge; o en les fletxes verdes per a mapes adjacents.


METAR-TAF: